Time;durP1;ratioP1;P1;durP2;ratioP2;P2;SDS_P1;SDS_P2;PMS_P1;PMS_P2;Temp;Humidity;BMP_temperature;BMP_pressure;BME280_temperature;BME280_humidity;BME280_pressure;Samples;Min_cycle;Max_cycle;Signal;HPM_P1;HPM_P2
2020/12/01 00:00:28;;;;;;;35.97;14.77;;;;;;;0.12;78.13;97087.25;5041714;28;20120;-61
2020/12/01 00:02:54;;;;;;;42.00;15.02;;;;;;;0.15;77.78;97084.00;5039725;28;20041;-62
2020/12/01 00:05:22;;;;;;;39.67;15.18;;;;;;;0.02;78.90;97075.81;5029857;28;20091;-62
2020/12/01 00:07:48;;;;;;;43.67;16.13;;;;;;;0.03;78.88;97080.91;5044964;28;20076;-61
2020/12/01 00:10:15;;;;;;;39.75;15.57;;;;;;;0.06;78.59;97079.56;5034395;28;20065;-62
2020/12/01 00:12:46;;;;;;;39.58;15.57;;;;;;;-0.15;79.88;97068.22;5029807;28;20067;-62
2020/12/01 00:15:15;;;;;;;39.10;17.38;;;;;;;-0.18;79.53;97071.50;5038017;28;20057;-61
2020/12/01 00:17:40;;;;;;;43.60;16.05;;;;;;;-0.22;80.40;97076.66;5034313;28;20080;-63
2020/12/01 00:20:08;;;;;;;37.78;15.38;;;;;;;-0.24;80.52;97068.84;5018761;28;20054;-63
2020/12/01 00:22:34;;;;;;;44.08;17.08;;;;;;;-0.23;80.35;97067.00;5028460;28;20057;-62
2020/12/01 00:25:00;;;;;;;36.38;15.23;;;;;;;-0.12;80.58;97067.66;5021641;28;20490;-61
2020/12/01 00:27:25;;;;;;;43.70;15.07;;;;;;;-0.13;80.22;97071.44;5014001;28;20465;-64
2020/12/01 00:29:51;;;;;;;36.30;15.05;;;;;;;-0.07;80.17;97073.00;5030361;28;20041;-61
2020/12/01 00:32:16;;;;;;;40.53;15.68;;;;;;;-0.11;80.12;97074.63;5029381;28;20041;-62
2020/12/01 00:34:42;;;;;;;40.60;16.00;;;;;;;-0.23;80.76;97083.94;5027106;28;20454;-61
2020/12/01 00:37:07;;;;;;;42.60;17.63;;;;;;;-0.21;80.86;97073.69;5015166;28;20052;-62
2020/12/01 00:39:32;;;;;;;35.30;14.45;;;;;;;-0.16;81.60;97077.38;5019832;28;20450;-62
2020/12/01 00:41:58;;;;;;;38.72;14.48;;;;;;;-0.11;80.86;97070.06;5022840;28;20079;-62
2020/12/01 00:44:23;;;;;;;41.20;16.27;;;;;;;-0.06;80.99;97069.19;5026985;28;20055;-64
2020/12/01 00:46:48;;;;;;;41.75;16.23;;;;;;;-0.09;80.62;97056.28;5045596;28;20076;-62
2020/12/01 00:49:16;;;;;;;39.92;16.13;;;;;;;-0.04;80.93;97067.00;5017621;28;20149;-61
2020/12/01 00:51:41;;;;;;;43.70;16.13;;;;;;;-0.07;80.94;97062.22;5022007;28;20124;-61
2020/12/01 00:54:07;;;;;;;38.33;15.48;;;;;;;-0.10;81.06;97057.41;5026154;28;20144;-60
2020/12/01 00:56:32;;;;;;;40.03;16.05;;;;;;;0.13;80.48;97058.47;5041426;28;20390;-63
2020/12/01 00:58:58;;;;;;;39.42;15.57;;;;;;;0.15;80.22;97050.88;5042280;28;20505;-60
2020/12/01 01:01:26;;;;;;;39.55;16.88;;;;;;;0.09;79.85;97044.78;5036352;28;20924;-63
2020/12/01 01:03:51;;;;;;;34.35;15.75;;;;;;;0.06;80.21;97047.25;5041462;28;20041;-62
2020/12/01 01:06:17;;;;;;;41.28;17.02;;;;;;;-0.01;80.42;97034.91;5034665;28;20114;-63
2020/12/01 01:08:42;;;;;;;40.08;15.25;;;;;;;-0.08;80.84;97031.78;5028761;28;20459;-63
2020/12/01 01:11:08;;;;;;;42.50;16.30;;;;;;;-0.05;80.58;97031.22;5033218;28;20037;-62
2020/12/01 01:13:37;;;;;;;38.72;16.55;;;;;;;-0.03;80.58;97030.91;5028090;28;20041;-62
2020/12/01 01:16:03;;;;;;;41.95;16.67;;;;;;;-0.15;81.32;97039.41;5037169;28;20045;-63
2020/12/01 01:18:29;;;;;;;41.03;16.77;;;;;;;-0.08;81.25;97042.56;5022979;28;20392;-62
2020/12/01 01:20:54;;;;;;;40.92;17.33;;;;;;;0.01;80.74;97033.84;5014036;28;20047;-63
2020/12/01 01:23:20;;;;;;;40.50;14.88;;;;;;;0.01;80.89;97034.63;5022289;28;20127;-63
2020/12/01 01:25:46;;;;;;;37.08;16.70;;;;;;;0.01;80.59;97042.72;5041390;28;20041;-63
2020/12/01 01:28:11;;;;;;;41.05;17.42;;;;;;;-0.01;80.75;97039.50;5024744;28;20175;-62
2020/12/01 01:30:39;;;;;;;37.45;16.20;;;;;;;-0.03;81.17;97020.94;5031178;28;20048;-62
2020/12/01 01:33:06;;;;;;;39.95;14.98;;;;;;;-0.07;80.96;97025.31;5035177;28;20398;-61
2020/12/01 01:35:34;;;;;;;40.75;15.95;;;;;;;0.02;80.79;97024.66;5002286;28;20071;-61
2020/12/01 01:38:02;;;;;;;42.50;16.85;;;;;;;-0.04;80.99;97030.13;5025464;28;20094;-62
2020/12/01 01:40:29;;;;;;;39.88;14.93;;;;;;;0.08;80.79;97028.91;5031474;28;20470;-61
2020/12/01 01:42:54;;;;;;;40.15;17.17;;;;;;;0.02;80.88;97030.03;5060209;28;20044;-62
2020/12/01 01:45:35;;;;;;;38.85;16.33;;;;;;;0.01;81.52;97023.84;5039573;28;20045;-62
2020/12/01 01:48:01;;;;;;;42.90;16.63;;;;;;;-0.02;81.43;97021.72;5041323;28;20509;-59
2020/12/01 01:50:28;;;;;;;37.53;15.75;;;;;;;-0.05;81.68;97025.81;5035282;28;20048;-62
2020/12/01 01:52:55;;;;;;;41.95;16.77;;;;;;;0.02;81.29;97028.16;5027669;28;20049;-62
2020/12/01 01:55:25;;;;;;;41.63;15.52;;;;;;;0.03;81.60;97015.50;5034806;28;20100;-62
2020/12/01 01:57:51;;;;;;;;;;;;;;;0.02;81.50;97008.50;5040148;28;20044;-63
2020/12/01 02:00:43;;;;;;;39.03;16.02;;;;;;;0.02;81.84;97008.50;5023896;28;19999;-61
2020/12/01 02:03:09;;;;;;;42.20;15.85;;;;;;;0.04;81.54;97004.44;5026367;28;20038;-63
2020/12/01 02:05:34;;;;;;;42.65;16.42;;;;;;;0.14;81.39;97006.97;5033552;28;20289;-63
2020/12/01 02:08:00;;;;;;;36.95;15.70;;;;;;;0.26;81.23;96994.97;5031368;28;20045;-60
2020/12/01 02:10:27;;;;;;;44.50;17.65;;;;;;;0.09;81.89;97003.53;5015206;28;20106;-64
2020/12/01 02:13:00;;;;;;;40.53;15.80;;;;;;;0.06;81.83;96991.47;5036355;28;20448;-64
2020/12/01 02:15:26;;;;;;;45.35;19.73;;;;;;;-0.02;81.87;96995.63;5012174;28;20059;-62
2020/12/01 02:17:51;;;;;;;45.28;16.90;;;;;;;-0.05;82.40;97001.59;5019401;28;20045;-61
2020/12/01 02:20:19;;;;;;;46.33;17.15;;;;;;;-0.10;82.67;96987.41;5004482;28;20115;-61
2020/12/01 02:22:51;;;;;;;42.55;16.95;;;;;;;-0.04;82.94;96980.84;5020599;28;20103;-61
2020/12/01 02:25:18;;;;;;;42.70;17.33;;;;;;;-0.10;82.62;96977.41;5015331;28;20417;-64
2020/12/01 02:27:51;;;;;;;44.92;17.10;;;;;;;-0.10;82.55;96971.25;5019764;28;20099;-63
2020/12/01 02:30:17;;;;;;;43.28;16.83;;;;;;;-0.04;82.59;96970.06;4996933;28;20064;-62
2020/12/01 02:32:42;;;;;;;41.95;17.25;;;;;;;-0.13;83.22;96963.75;5018492;28;20037;-62
2020/12/01 02:35:11;;;;;;;41.70;17.50;;;;;;;-0.14;83.01;96952.19;5016411;28;20045;-59
2020/12/01 02:37:40;;;;;;;43.03;16.75;;;;;;;0.01;83.09;96943.06;5021202;28;20107;-61
2020/12/01 02:40:13;;;;;;;43.90;16.45;;;;;;;0.26;81.83;96938.41;5015312;28;20482;-59
2020/12/01 02:42:38;;;;;;;40.22;16.83;;;;;;;0.11;81.92;96934.84;5020226;28;20453;-59
2020/12/01 02:45:04;;;;;;;47.00;17.17;;;;;;;0.05;82.64;96945.97;5016886;28;20107;-60
2020/12/01 02:47:30;;;;;;;44.63;17.92;;;;;;;0.11;82.16;96936.72;5018254;28;20124;-61
2020/12/01 02:49:56;;;;;;;40.72;16.85;;;;;;;0.13;82.87;96939.94;5012929;28;20107;-62
2020/12/01 02:52:23;;;;;;;40.67;17.00;;;;;;;0.08;83.38;96937.31;5011465;28;20565;-60
2020/12/01 02:54:49;;;;;;;42.63;17.55;;;;;;;0.12;83.48;96922.97;5018832;28;20161;-61
2020/12/01 02:57:15;;;;;;;40.40;16.80;;;;;;;0.01;84.81;96924.22;5014713;28;20507;-61
2020/12/01 02:59:40;;;;;;;46.90;19.08;;;;;;;0.09;84.60;96928.94;5019769;28;20128;-62
2020/12/01 03:02:06;;;;;;;43.08;17.75;;;;;;;0.05;85.77;96924.44;5014986;28;20049;-61
2020/12/01 03:04:31;;;;;;;44.67;16.88;;;;;;;0.01;86.39;96910.75;5020601;28;20491;-62
2020/12/01 03:06:56;;;;;;;50.83;18.58;;;;;;;0.08;86.38;96910.38;5020277;28;20524;-61
2020/12/01 03:09:22;;;;;;;40.08;15.75;;;;;;;0.13;86.27;96900.34;5014791;28;20866;-61
2020/12/01 03:11:49;;;;;;;46.88;18.35;;;;;;;0.07;86.58;96885.31;5020646;28;20049;-59
2020/12/01 03:14:14;;;;;;;45.15;17.77;;;;;;;0.13;87.34;96886.06;5015877;28;20042;-61
2020/12/01 03:16:40;;;;;;;44.05;16.88;;;;;;;0.21;87.27;96884.59;5025934;28;20051;-60
2020/12/01 03:19:05;;;;;;;38.85;16.58;;;;;;;0.20;87.36;96886.50;5019965;28;20049;-60
2020/12/01 03:21:31;;;;;;;49.13;21.13;;;;;;;-0.05;88.00;96880.41;5023512;28;20076;-59
2020/12/01 03:23:56;;;;;;;44.00;17.75;;;;;;;0.02;88.35;96879.22;5027240;28;20141;-61
2020/12/01 03:26:22;;;;;;;41.45;17.90;;;;;;;-0.15;89.30;96867.09;5034483;28;20053;-62
2020/12/01 03:28:47;;;;;;;39.90;16.65;;;;;;;-0.05;89.09;96866.16;5043200;28;20048;-61
2020/12/01 03:31:16;;;;;;;41.70;17.30;;;;;;;0.01;88.85;96864.19;5038292;28;20047;-62
2020/12/01 03:33:42;;;;;;;46.93;19.07;;;;;;;-0.11;89.31;96856.53;5029839;28;20049;-62
2020/12/01 03:36:08;;;;;;;42.03;16.45;;;;;;;0.05;88.70;96859.81;5035323;28;20041;-62
2020/12/01 03:38:33;;;;;;;45.47;17.33;;;;;;;-0.02;89.00;96835.94;5045556;28;20034;-61
2020/12/01 03:40:59;;;;;;;45.95;17.52;;;;;;;-0.08;89.25;96829.84;5045327;28;20072;-62
2020/12/01 03:43:24;;;;;;;48.35;18.05;;;;;;;-0.14;89.66;96827.53;5030741;28;20045;-60
2020/12/01 03:45:50;;;;;;;45.30;16.80;;;;;;;-0.14;89.38;96822.94;5024797;28;20045;-60
2020/12/01 03:48:15;;;;;;;43.95;17.67;;;;;;;-0.14;89.70;96825.63;5029778;28;20049;-60
2020/12/01 03:50:41;;;;;;;44.05;17.13;;;;;;;-0.13;89.99;96826.44;5034802;28;20046;-60
2020/12/01 03:53:07;;;;;;;47.55;18.35;;;;;;;-0.19;89.91;96836.47;5027638;28;20095;-61
2020/12/01 03:55:32;;;;;;;47.22;17.80;;;;;;;-0.20;90.38;96846.47;5041544;28;20060;-58
2020/12/01 03:57:58;;;;;;;46.50;18.15;;;;;;;-0.25;91.30;96840.34;5057332;28;20056;-59
2020/12/01 04:00:26;;;;;;;44.78;19.48;;;;;;;-0.28;91.24;96835.56;5023306;28;20048;-60
2020/12/01 04:02:52;;;;;;;47.00;17.77;;;;;;;-0.31;91.32;96820.78;5035342;28;20044;-61
2020/12/01 04:05:20;;;;;;;40.50;16.63;;;;;;;-0.16;90.96;96817.06;5038479;28;20041;-61
2020/12/01 04:07:46;;;;;;;45.40;16.45;;;;;;;-0.25;90.88;96808.84;5047785;28;20059;-61
2020/12/01 04:10:14;;;;;;;42.17;16.55;;;;;;;-0.23;90.69;96806.66;5020351;28;20069;-59
2020/12/01 04:12:40;;;;;;;40.63;17.98;;;;;;;-0.31;91.02;96801.94;5037358;28;20033;-61
2020/12/01 04:15:05;;;;;;;37.45;16.95;;;;;;;-0.30;91.77;96795.47;5022669;28;20042;-60
2020/12/01 04:17:31;;;;;;;43.28;17.45;;;;;;;-0.26;91.95;96796.47;5024656;28;20060;-60
2020/12/01 04:19:57;;;;;;;43.85;16.90;;;;;;;-0.13;91.35;96788.75;5018866;28;20041;-61
2020/12/01 04:22:22;;;;;;;40.00;15.82;;;;;;;-0.11;91.32;96787.38;5012568;28;20076;-60
2020/12/01 04:24:48;;;;;;;36.70;15.35;;;;;;;-0.11;90.67;96778.47;5025452;28;20040;-61
2020/12/01 04:27:15;;;;;;;42.83;16.80;;;;;;;-0.13;90.30;96767.19;5013506;28;20119;-60
2020/12/01 04:29:40;;;;;;;37.35;14.98;;;;;;;-0.23;91.14;96768.19;5041845;28;20060;-62
2020/12/01 04:32:06;;;;;;;44.88;16.15;;;;;;;-0.19;90.88;96763.78;5041648;28;20049;-61
2020/12/01 04:34:32;;;;;;;37.90;15.82;;;;;;;-0.24;91.45;96758.50;5034343;28;20054;-60
2020/12/01 04:36:58;;;;;;;41.65;15.38;;;;;;;-0.24;91.20;96755.81;5028294;28;20049;-61
2020/12/01 04:39:24;;;;;;;36.13;15.35;;;;;;;-0.31;91.34;96750.78;5029789;28;20047;-60
2020/12/01 04:41:50;;;;;;;40.25;16.70;;;;;;;-0.29;91.96;96747.81;5041665;28;20037;-61
2020/12/01 04:44:36;;;;;;;38.72;17.05;;;;;;;-0.25;91.25;96743.47;5013496;28;20060;-60
2020/12/01 04:47:07;;;;;;;40.28;16.00;;;;;;;-0.16;91.86;96739.00;5028112;28;20402;-62
2020/12/01 04:49:37;;;;;;;38.53;15.85;;;;;;;-0.19;91.72;96739.56;5019138;28;20473;-62
2020/12/01 04:52:40;;;;;;;39.03;16.35;;;;;;;-0.15;91.90;96732.50;5029000;28;20049;-61
2020/12/01 04:55:23;;;;;;;40.78;15.65;;;;;;;-0.18;92.06;96729.59;5034472;28;20048;-61
2020/12/01 04:58:16;;;;;;;41.28;17.02;;;;;;;-0.21;92.69;96723.72;5041369;28;20080;-60
2020/12/01 05:01:13;;;;;;;36.13;14.57;;;;;;;-0.17;92.50;96712.34;5026264;28;20049;-60
2020/12/01 05:03:52;;;;;;;37.92;15.82;;;;;;;-0.20;92.41;96719.94;5028924;28;20043;-60
2020/12/01 05:09:37;;;;;;;37.13;16.27;;;;;;;-0.21;92.76;96690.63;4988051;28;20037;-59
2020/12/01 05:12:10;;;;;;;38.95;17.38;;;;;;;-0.23;93.27;96690.91;4996617;28;20050;-60
2020/12/01 05:14:45;;;;;;;37.70;15.45;;;;;;;-0.23;93.40;96693.59;4996702;28;20056;-61
2020/12/01 05:17:29;;;;;;;42.17;14.48;;;;;;;-0.10;93.23;96691.22;4996793;28;20058;-60
2020/12/01 05:19:55;;;;;;;37.15;16.02;;;;;;;-0.05;92.61;96693.84;5006458;28;20149;-62
2020/12/01 05:22:21;;;;;;;39.50;16.20;;;;;;;-0.16;92.58;96685.16;5010215;28;20462;-60
2020/12/01 05:24:52;;;;;;;39.15;14.95;;;;;;;-0.16;93.18;96678.94;5020019;28;20516;-60
2020/12/01 05:27:36;;;;;;;37.40;15.23;;;;;;;-0.06;92.77;96678.75;4990458;28;20100;-60
2020/12/01 05:30:05;;;;;;;41.53;16.52;;;;;;;-0.12;93.11;96675.38;4996779;28;20415;-60
2020/12/01 05:32:37;;;;;;;38.97;14.18;;;;;;;-0.17;92.97;96667.38;5014611;28;20127;-60
2020/12/01 05:35:13;;;;;;;38.85;14.70;;;;;;;-0.18;93.78;96668.50;5026016;28;20041;-62
2020/12/01 05:37:48;;;;;;;38.20;15.32;;;;;;;-0.20;93.69;96663.41;5024331;28;20042;-60
2020/12/01 05:40:14;;;;;;;33.92;13.43;;;;;;;-0.22;93.23;96654.00;4999794;28;20048;-58
2020/12/01 05:42:46;;;;;;;37.28;15.70;;;;;;;-0.13;93.40;96652.22;5000583;28;20081;-60
2020/12/01 05:45:28;;;;;;;38.15;15.65;;;;;;;-0.13;93.47;96654.91;4986811;28;20047;-61
2020/12/01 05:48:07;;;;;;;35.90;14.23;;;;;;;-0.18;93.85;96655.03;5001348;28;20038;-60
2020/12/01 05:50:32;;;;;;;29.98;13.65;;;;;;;-0.17;93.69;96647.75;5018589;28;20045;-60
2020/12/01 05:53:01;;;;;;;41.50;17.45;;;;;;;-0.16;93.39;96638.56;5016650;28;20045;-60
2020/12/01 05:55:27;;;;;;;34.28;14.45;;;;;;;-0.07;93.74;96645.66;5020892;28;20128;-60
2020/12/01 05:58:06;;;;;;;36.55;15.32;;;;;;;-0.10;93.61;96642.78;5028846;28;20148;-61
2020/12/01 06:00:35;;;;;;;36.30;13.55;;;;;;;-0.12;93.16;96631.50;5019706;28;20121;-59
2020/12/01 06:03:31;;;;;;;35.05;14.00;;;;;;;-0.07;93.57;96634.91;4999060;28;20060;-60
2020/12/01 06:05:59;;;;;;;35.72;14.27;;;;;;;0.02;93.03;96639.56;5020624;28;20516;-60
2020/12/01 06:08:57;;;;;;;38.72;14.30;;;;;;;0.08;92.81;96633.00;5010263;28;20461;-60
2020/12/01 06:11:40;;;;;;;37.83;14.90;;;;;;;0.09;92.77;96626.50;4997228;28;20457;-62
2020/12/01 06:14:32;;;;;;;37.45;15.30;;;;;;;-0.05;92.76;96621.13;5026237;28;20138;-62
2020/12/01 06:17:21;;;;;;;31.70;14.93;;;;;;;0.00;93.17;96612.97;5020783;28;20635;-63
2020/12/01 06:20:01;;;;;;;32.00;14.52;;;;;;;0.05;92.76;96609.34;5020381;28;20049;-63
2020/12/01 06:22:56;;;;;;;34.30;15.30;;;;;;;0.08;92.39;96609.53;5010126;28;20513;-63
2020/12/01 06:25:28;;;;;;;35.25;15.25;;;;;;;-0.05;92.84;96611.16;5017637;28;20674;-65
2020/12/01 06:28:24;;;;;;;33.38;13.65;;;;;;;-0.05;93.15;96603.06;5029003;28;20064;-65
2020/12/01 06:31:27;;;;;;;35.15;15.90;;;;;;;-0.06;93.80;96601.47;5020289;28;20041;-64
2020/12/01 06:34:14;;;;;;;35.90;15.57;;;;;;;0.07;94.88;96591.00;5025342;28;20087;-64
2020/12/01 06:37:04;;;;;;;37.38;17.80;;;;;;;0.10;94.21;96598.47;5019022;28;20374;-65
2020/12/01 06:39:48;;;;;;;;;;;;;;;0.10;94.05;96601.16;5018538;28;20049;-63
2020/12/01 06:42:16;;;;;;;41.70;14.82;;;;;;;0.07;93.99;96605.25;5015158;28;19948;-62
2020/12/01 06:44:44;;;;;;;33.72;15.05;;;;;;;0.04;94.13;96600.47;5021740;28;20506;-62
2020/12/01 06:47:10;;;;;;;40.55;17.55;;;;;;;-0.17;93.54;96610.06;5022558;28;20152;-63
2020/12/01 06:49:37;;;;;;;58.92;26.90;;;;;;;-0.35;93.89;96604.47;5033524;28;20541;-62
2020/12/01 06:52:11;;;;;;;45.13;20.02;;;;;;;-0.26;94.68;96613.44;5042071;28;20097;-60
2020/12/01 06:54:47;;;;;;;34.42;14.80;;;;;;;-0.13;93.91;96611.84;5036157;28;20045;-61
2020/12/01 06:57:25;;;;;;;28.75;13.60;;;;;;;-0.02;93.79;96613.25;5035737;28;20493;-61
2020/12/01 06:59:51;;;;;;;28.33;13.45;;;;;;;0.02;93.67;96609.94;5026554;28;20049;-60
2020/12/01 07:02:18;;;;;;;32.58;13.15;;;;;;;-0.01;93.78;96605.97;5019289;28;20504;-60
2020/12/01 07:04:43;;;;;;;30.02;14.20;;;;;;;0.01;93.48;96605.66;5023914;28;20100;-59
2020/12/01 07:07:27;;;;;;;30.38;14.15;;;;;;;0.03;93.58;96608.84;5020049;28;20406;-61
2020/12/01 07:09:53;;;;;;;30.52;13.45;;;;;;;0.08;92.89;96611.44;5026546;28;20084;-59
2020/12/01 07:12:44;;;;;;;32.05;13.82;;;;;;;0.11;92.99;96610.81;5024512;28;20038;-59
2020/12/01 07:15:16;;;;;;;29.30;12.80;;;;;;;0.16;93.20;96611.53;5022433;28;20489;-60
2020/12/01 07:18:15;;;;;;;31.27;14.68;;;;;;;0.13;92.65;96606.75;5031174;28;20127;-60
2020/12/01 07:21:03;;;;;;;29.35;13.55;;;;;;;0.04;92.77;96607.75;5016013;28;20128;-61
2020/12/01 07:23:37;;;;;;;29.25;12.63;;;;;;;0.00;92.33;96604.88;5012742;28;20203;-60
2020/12/01 07:26:11;;;;;;;30.45;13.18;;;;;;;0.09;92.60;96604.94;5016754;28;20485;-62
2020/12/01 07:28:50;;;;;;;27.48;12.52;;;;;;;0.16;93.01;96605.34;5020186;28;20084;-61
2020/12/01 07:31:30;;;;;;;30.45;13.20;;;;;;;0.07;92.69;96605.25;5015877;28;20048;-63
2020/12/01 07:34:04;;;;;;;27.98;12.27;;;;;;;0.13;92.55;96606.75;5021368;28;20449;-61
2020/12/01 07:36:40;;;;;;;28.70;13.10;;;;;;;0.21;92.88;96607.16;5021563;28;20113;-62
2020/12/01 07:39:24;;;;;;;32.33;13.43;;;;;;;0.35;92.88;96611.41;5024881;28;20054;-62
2020/12/01 07:41:54;;;;;;;28.38;12.60;;;;;;;0.32;92.06;96606.59;5023326;28;20444;-61
2020/12/01 07:44:25;;;;;;;30.08;14.10;;;;;;;0.42;91.65;96610.22;4979990;28;20506;-61
2020/12/01 07:47:12;;;;;;;28.95;12.98;;;;;;;0.50;90.77;96606.78;4989787;28;20458;-61
2020/12/01 07:49:37;;;;;;;29.35;13.93;;;;;;;0.50;90.62;96604.88;5029960;28;20117;-61
2020/12/01 07:52:21;;;;;;;30.83;13.77;;;;;;;0.42;90.96;96594.03;5019756;28;20037;-63
2020/12/01 07:54:53;;;;;;;30.88;13.68;;;;;;;0.50;90.19;96601.38;5017174;28;20085;-61
2020/12/01 07:57:20;;;;;;;34.28;15.18;;;;;;;0.24;90.88;96601.16;5021935;28;20041;-61
2020/12/01 07:59:48;;;;;;;30.02;15.02;;;;;;;0.26;91.91;96605.13;5022391;28;20037;-61
2020/12/01 08:02:16;;;;;;;33.90;14.70;;;;;;;0.27;91.90;96600.53;5001560;28;20379;-62
2020/12/01 08:04:41;;;;;;;40.03;18.20;;;;;;;0.02;92.51;96593.78;5042537;28;20041;-62
2020/12/01 08:07:13;;;;;;;32.10;13.45;;;;;;;-0.15;93.41;96600.59;5028516;28;20095;-64
2020/12/01 08:09:38;;;;;;;28.95;13.30;;;;;;;-0.13;93.02;96597.59;5034015;28;20040;-62
2020/12/01 08:12:09;;;;;;;32.67;13.73;;;;;;;-0.25;94.20;96600.78;5032313;28;20049;-63
2020/12/01 08:14:35;;;;;;;31.58;14.52;;;;;;;-0.31;94.38;96607.34;5036320;28;20568;-63
2020/12/01 08:17:05;;;;;;;35.33;15.23;;;;;;;-0.21;94.28;96597.19;5027309;28;20462;-63
2020/12/01 08:19:32;;;;;;;34.90;15.32;;;;;;;-0.05;94.15;96596.91;5022251;28;20053;-62
2020/12/01 08:22:00;;;;;;;32.08;14.60;;;;;;;-0.10;93.97;96597.00;5021157;28;20110;-62
2020/12/01 08:24:29;;;;;;;30.90;14.35;;;;;;;0.20;93.92;96584.81;5025191;28;20139;-62
2020/12/01 08:27:17;;;;;;;29.50;14.23;;;;;;;0.34;93.30;96587.44;5025430;28;20502;-62
2020/12/01 08:29:46;;;;;;;30.33;13.55;;;;;;;0.43;92.55;96585.63;5034021;28;20056;-60
2020/12/01 08:32:26;;;;;;;27.85;12.48;;;;;;;0.36;91.40;96586.06;5020250;28;20037;-63
2020/12/01 08:34:56;;;;;;;25.40;11.77;;;;;;;0.57;91.23;96594.47;5021295;28;20663;-61
2020/12/01 08:37:50;;;;;;;26.50;11.70;;;;;;;0.30;92.01;96589.94;5012725;28;20606;-61
2020/12/01 08:40:31;;;;;;;20.33;10.25;;;;;;;0.59;90.68;96580.69;5027040;28;20045;-62
2020/12/01 08:43:24;;;;;;;23.25;10.60;;;;;;;0.59;91.02;96575.31;5030944;28;20127;-61
2020/12/01 08:46:02;;;;;;;21.45;10.27;;;;;;;0.44;91.47;96579.16;5031156;28;20780;-63
2020/12/01 08:48:39;;;;;;;22.65;10.35;;;;;;;0.32;91.65;96589.66;4993418;28;20041;-62
2020/12/01 08:51:15;;;;;;;20.25;10.73;;;;;;;0.39;91.32;96592.72;5022562;28;20053;-61
2020/12/01 08:53:51;;;;;;;23.15;10.57;;;;;;;0.48;92.37;96582.81;5020648;28;20136;-62
2020/12/01 08:56:23;;;;;;;21.63;11.63;;;;;;;0.60;91.49;96590.38;5016438;28;20075;-62
2020/12/01 08:58:53;;;;;;;24.33;11.50;;;;;;;0.52;91.88;96583.00;5008135;28;20778;-62
2020/12/01 09:01:19;;;;;;;23.70;11.13;;;;;;;0.53;91.56;96590.00;5019827;28;20048;-61
2020/12/01 09:03:57;;;;;;;23.20;11.10;;;;;;;0.75;91.13;96590.00;5036718;28;20113;-61
2020/12/01 09:06:34;;;;;;;24.90;11.77;;;;;;;0.85;91.42;96580.91;5021359;28;20583;-62
2020/12/01 09:09:10;;;;;;;24.33;10.95;;;;;;;0.97;90.56;96577.63;5057834;28;20033;-62
2020/12/01 09:15:09;;;;;;;18.73;9.52;;;;;;;0.96;89.71;96581.47;5038021;28;20079;-62
2020/12/01 09:17:55;;;;;;;23.33;10.05;;;;;;;0.67;89.90;96579.19;5033848;28;20106;-60
2020/12/01 09:23:03;;;;;;;23.27;12.02;;;;;;;0.72;90.34;96574.47;5021592;28;20080;-60
2020/12/01 09:25:28;;;;;;;18.70;9.00;;;;;;;0.88;90.34;96577.59;4996754;28;20141;-60
2020/12/01 09:27:55;;;;;;;17.08;7.47;;;;;;;0.96;90.78;96570.66;5001294;28;20162;-60
2020/12/01 09:30:34;;;;;;;14.18;7.05;;;;;;;1.22;90.14;96573.50;4992824;28;20045;-60
2020/12/01 09:33:01;;;;;;;13.07;7.18;;;;;;;1.10;89.58;96576.00;5001698;28;20042;-58
2020/12/01 09:35:26;;;;;;;17.73;8.18;;;;;;;0.95;89.81;96577.97;4995143;28;20069;-60
2020/12/01 09:37:52;;;;;;;20.40;8.40;;;;;;;0.93;90.43;96585.53;5000846;28;20145;-63
2020/12/01 09:40:18;;;;;;;14.40;6.20;;;;;;;0.80;91.25;96586.41;4996219;28;20045;-62
2020/12/01 09:42:46;;;;;;;15.77;6.40;;;;;;;0.84;91.36;96592.00;5000709;28;20152;-60
2020/12/01 09:45:29;;;;;;;15.43;6.85;;;;;;;0.97;90.61;96593.81;4997404;28;20040;-61
2020/12/01 09:48:18;;;;;;;13.65;7.00;;;;;;;0.99;90.74;96585.44;5024716;28;20175;-60
2020/12/01 09:50:43;;;;;;;12.00;6.67;;;;;;;0.57;91.51;96591.78;5041831;28;20540;-63
2020/12/01 10:20:11;;;;;;;5.32;3.38;;;;;;;0.85;90.93;96585.50;5025250;28;20380;-61
2020/12/01 10:35:43;;;;;;;7.20;3.13;;;;;;;0.72;90.51;96589.81;5025600;28;20421;-62
2020/12/01 10:38:09;;;;;;;5.18;2.88;;;;;;;0.70;91.08;96581.25;5013206;28;20048;-62
2020/12/01 10:40:35;;;;;;;4.35;2.90;;;;;;;0.68;90.57;96581.56;5022403;28;20046;-63
2020/12/01 10:43:00;;;;;;;34.92;15.00;;;;;;;0.74;90.84;96576.88;5007038;28;20100;-61
2020/12/01 10:45:28;;;;;;;11.48;5.32;;;;;;;0.94;90.16;96573.66;4994924;28;20661;-61
2020/12/01 10:47:54;;;;;;;5.82;3.42;;;;;;;0.99;90.06;96575.47;5000631;28;20585;-61
2020/12/01 10:50:23;;;;;;;5.35;3.30;;;;;;;0.97;89.87;96585.72;4993913;28;20045;-63
2020/12/01 10:52:49;;;;;;;5.10;2.97;;;;;;;0.94;89.58;96579.06;4998580;28;20104;-62
2020/12/01 10:55:22;;;;;;;3.90;2.25;;;;;;;0.97;89.64;96580.34;5003291;28;20049;-62
2020/12/01 10:57:54;;;;;;;4.18;2.47;;;;;;;0.75;90.43;96578.44;5022363;28;20073;-61
2020/12/01 11:00:22;;;;;;;3.88;2.60;;;;;;;0.94;89.96;96583.66;5017866;28;20046;-62
2020/12/01 11:02:48;;;;;;;6.18;2.78;;;;;;;0.95;89.37;96579.84;5019368;28;20045;-62
2020/12/01 11:05:18;;;;;;;2.97;2.35;;;;;;;1.01;89.49;96581.34;5016412;28;20133;-60
2020/12/01 11:07:43;;;;;;;4.30;2.97;;;;;;;1.07;89.54;96584.69;5032077;28;20203;-65
2020/12/01 11:10:09;;;;;;;4.03;2.83;;;;;;;1.18;88.68;96580.63;5027992;28;20105;-63
2020/12/01 11:12:35;;;;;;;3.53;2.63;;;;;;;1.43;88.40;96581.88;5030273;28;20049;-60
2020/12/01 11:15:00;;;;;;;6.10;2.83;;;;;;;1.61;87.83;96581.97;5027704;28;20049;-63
2020/12/01 11:17:26;;;;;;;3.20;2.03;;;;;;;1.86;86.80;96580.47;5035911;28;20049;-61
2020/12/01 11:19:51;;;;;;;3.75;2.10;;;;;;;1.94;86.51;96585.09;5020908;28;20064;-60
2020/12/01 11:22:17;;;;;;;3.95;2.42;;;;;;;1.95;84.95;96588.63;5018377;28;20041;-62
2020/12/01 11:24:42;;;;;;;3.35;2.00;;;;;;;2.01;85.26;96581.94;5026533;28;20095;-62
2020/12/01 11:27:08;;;;;;;2.70;1.80;;;;;;;2.06;84.84;96587.22;5012434;28;20519;-60
2020/12/01 11:29:35;;;;;;;3.13;1.83;;;;;;;2.16;84.41;96583.41;5020570;28;20048;-62
2020/12/01 11:32:01;;;;;;;3.92;1.80;;;;;;;2.14;84.64;96582.94;5035653;28;20072;-61
2020/12/01 11:34:26;;;;;;;3.05;1.77;;;;;;;2.27;84.04;96579.31;5018129;28;20054;-62
2020/12/01 11:36:54;;;;;;;2.97;1.80;;;;;;;2.41;83.40;96571.88;5026459;28;20041;-61
2020/12/01 11:39:20;;;;;;;5.32;1.98;;;;;;;2.72;83.88;96564.69;5009821;28;20141;-62
2020/12/01 11:41:45;;;;;;;3.15;2.08;;;;;;;2.98;82.72;96567.38;5025379;28;20835;-61
2020/12/01 11:44:12;;;;;;;5.28;1.95;;;;;;;3.15;81.56;96575.50;5023433;28;20379;-61
2020/12/01 11:46:38;;;;;;;10.27;4.20;;;;;;;3.28;80.41;96572.88;5037414;28;20052;-61
2020/12/01 11:49:03;;;;;;;11.75;4.68;;;;;;;3.36;80.24;96581.00;5041512;28;20052;-60
2020/12/01 11:51:30;;;;;;;5.70;2.90;;;;;;;3.47;80.28;96572.53;5043350;28;20037;-61
2020/12/01 11:53:55;;;;;;;5.63;2.40;;;;;;;3.08;80.50;96577.06;5047094;28;20041;-61
2020/12/01 11:56:21;;;;;;;3.72;2.30;;;;;;;3.11;79.94;96569.09;5038063;28;20052;-62
2020/12/01 11:58:46;;;;;;;3.75;2.10;;;;;;;3.11;80.87;96573.72;5031933;28;20048;-63
2020/12/01 12:01:12;;;;;;;3.78;2.60;;;;;;;2.65;81.08;96584.91;5027537;28;20037;-63
2020/12/01 12:03:37;;;;;;;5.93;3.55;;;;;;;2.34;83.16;96581.53;5043512;28;20474;-62
2020/12/01 12:06:03;;;;;;;4.82;2.88;;;;;;;1.68;85.70;96576.91;5039860;28;20045;-62
2020/12/01 12:08:29;;;;;;;6.03;4.43;;;;;;;1.38;87.52;96586.63;5023552;28;20049;-62
2020/12/01 12:10:54;;;;;;;5.65;4.22;;;;;;;1.25;88.34;96575.59;5026243;28;20041;-61
2020/12/01 12:13:20;;;;;;;6.15;3.72;;;;;;;1.12;88.94;96585.38;5028142;28;20128;-62
2020/12/01 12:15:45;;;;;;;5.00;3.75;;;;;;;1.13;89.08;96581.56;5031116;28;20049;-62
2020/12/01 12:18:10;;;;;;;4.82;3.45;;;;;;;1.27;89.43;96576.09;5035186;28;20529;-62
2020/12/01 12:20:36;;;;;;;8.55;4.47;;;;;;;1.19;90.08;96584.94;5023501;28;20053;-62
2020/12/01 12:23:02;;;;;;;6.90;3.42;;;;;;;1.55;88.99;96584.00;5023670;28;20679;-61
2020/12/01 12:25:27;;;;;;;7.93;4.13;;;;;;;1.53;89.05;96586.19;5019243;28;20052;-63
2020/12/01 12:27:53;;;;;;;7.78;4.53;;;;;;;1.52;88.46;96587.31;5019925;28;20406;-61